sensor_id;sensor_type;location;lat;lon;timestamp;P1;durP1;ratioP1;P2;durP2;ratioP2
15340;SDS011;7770;52.158;5.372;2023-06-26T00:02:18;13.03;;;11.93;;
15340;SDS011;7770;52.158;5.372;2023-06-26T00:05:04;12.13;;;11.07;;
15340;SDS011;7770;52.158;5.372;2023-06-26T00:07:50;12.07;;;11.07;;
15340;SDS011;7770;52.158;5.372;2023-06-26T00:10:36;11.60;;;10.60;;
15340;SDS011;7770;52.158;5.372;2023-06-26T00:13:23;12.10;;;10.80;;
15340;SDS011;7770;52.158;5.372;2023-06-26T00:16:09;11.63;;;10.63;;
15340;SDS011;7770;52.158;5.372;2023-06-26T00:18:55;11.47;;;10.57;;
15340;SDS011;7770;52.158;5.372;2023-06-26T00:21:41;11.63;;;10.73;;
15340;SDS011;7770;52.158;5.372;2023-06-26T00:24:31;12.23;;;11.23;;
15340;SDS011;7770;52.158;5.372;2023-06-26T00:27:17;12.15;;;11.15;;
15340;SDS011;7770;52.158;5.372;2023-06-26T00:30:03;11.93;;;10.93;;
15340;SDS011;7770;52.158;5.372;2023-06-26T00:32:50;11.77;;;10.87;;
15340;SDS011;7770;52.158;5.372;2023-06-26T00:35:36;12.50;;;11.40;;
15340;SDS011;7770;52.158;5.372;2023-06-26T00:38:22;12.10;;;11.10;;
15340;SDS011;7770;52.158;5.372;2023-06-26T00:41:08;12.23;;;11.17;;
15340;SDS011;7770;52.158;5.372;2023-06-26T00:43:57;12.53;;;11.43;;
15340;SDS011;7770;52.158;5.372;2023-06-26T00:46:43;13.10;;;11.83;;
15340;SDS011;7770;52.158;5.372;2023-06-26T00:49:29;12.10;;;11.00;;
15340;SDS011;7770;52.158;5.372;2023-06-26T00:52:15;12.37;;;11.33;;
15340;SDS011;7770;52.158;5.372;2023-06-26T00:55:02;12.20;;;11.17;;
15340;SDS011;7770;52.158;5.372;2023-06-26T00:57:49;12.73;;;11.63;;
15340;SDS011;7770;52.158;5.372;2023-06-26T01:00:35;13.40;;;12.20;;
15340;SDS011;7770;52.158;5.372;2023-06-26T01:03:25;13.40;;;12.17;;
15340;SDS011;7770;52.158;5.372;2023-06-26T01:06:11;12.10;;;11.13;;
15340;SDS011;7770;52.158;5.372;2023-06-26T01:08:59;12.47;;;11.47;;
15340;SDS011;7770;52.158;5.372;2023-06-26T01:11:45;12.07;;;11.17;;
15340;SDS011;7770;52.158;5.372;2023-06-26T01:14:32;13.33;;;12.00;;
15340;SDS011;7770;52.158;5.372;2023-06-26T01:17:20;12.83;;;11.63;;
15340;SDS011;7770;52.158;5.372;2023-06-26T01:20:07;12.73;;;11.60;;
15340;SDS011;7770;52.158;5.372;2023-06-26T01:29:07;13.17;;;11.87;;
15340;SDS011;7770;52.158;5.372;2023-06-26T01:31:55;12.93;;;11.83;;
15340;SDS011;7770;52.158;5.372;2023-06-26T01:34:42;12.47;;;11.37;;
15340;SDS011;7770;52.158;5.372;2023-06-26T01:37:29;13.20;;;11.40;;
15340;SDS011;7770;52.158;5.372;2023-06-26T01:40:15;11.53;;;10.53;;
15340;SDS011;7770;52.158;5.372;2023-06-26T01:43:01;11.20;;;10.20;;
15340;SDS011;7770;52.158;5.372;2023-06-26T01:45:48;10.47;;;9.57;;
15340;SDS011;7770;52.158;5.372;2023-06-26T01:48:39;10.37;;;9.37;;
15340;SDS011;7770;52.158;5.372;2023-06-26T01:51:42;9.67;;;8.77;;
15340;SDS011;7770;52.158;5.372;2023-06-26T01:54:37;9.50;;;8.53;;
15340;SDS011;7770;52.158;5.372;2023-06-26T01:57:31;10.33;;;8.87;;
15340;SDS011;7770;52.158;5.372;2023-06-26T02:00:17;9.80;;;8.80;;
15340;SDS011;7770;52.158;5.372;2023-06-26T02:03:05;10.13;;;8.67;;
15340;SDS011;7770;52.158;5.372;2023-06-26T02:05:51;9.70;;;8.50;;
15340;SDS011;7770;52.158;5.372;2023-06-26T02:08:37;9.93;;;8.67;;
15340;SDS011;7770;52.158;5.372;2023-06-26T02:11:23;9.30;;;8.37;;
15340;SDS011;7770;52.158;5.372;2023-06-26T02:14:09;10.53;;;8.53;;
15340;SDS011;7770;52.158;5.372;2023-06-26T02:16:56;11.10;;;8.53;;
15340;SDS011;7770;52.158;5.372;2023-06-26T02:19:42;9.63;;;8.17;;
15340;SDS011;7770;52.158;5.372;2023-06-26T02:22:32;11.13;;;8.13;;
15340;SDS011;7770;52.158;5.372;2023-06-26T02:25:18;9.57;;;8.20;;
15340;SDS011;7770;52.158;5.372;2023-06-26T02:28:04;9.67;;;8.17;;
15340;SDS011;7770;52.158;5.372;2023-06-26T02:30:50;8.53;;;7.73;;
15340;SDS011;7770;52.158;5.372;2023-06-26T02:33:36;9.30;;;8.40;;
15340;SDS011;7770;52.158;5.372;2023-06-26T02:36:22;11.47;;;8.60;;
15340;SDS011;7770;52.158;5.372;2023-06-26T02:39:08;10.27;;;8.10;;
15340;SDS011;7770;52.158;5.372;2023-06-26T02:41:54;11.40;;;8.50;;
15340;SDS011;7770;52.158;5.372;2023-06-26T02:44:40;14.63;;;8.60;;
15340;SDS011;7770;52.158;5.372;2023-06-26T02:47:26;11.33;;;8.60;;
15340;SDS011;7770;52.158;5.372;2023-06-26T02:50:12;10.23;;;8.33;;
15340;SDS011;7770;52.158;5.372;2023-06-26T02:52:58;10.57;;;8.23;;
15340;SDS011;7770;52.158;5.372;2023-06-26T02:55:45;13.60;;;8.80;;
15340;SDS011;7770;52.158;5.372;2023-06-26T02:58:32;12.77;;;8.63;;
15340;SDS011;7770;52.158;5.372;2023-06-26T03:01:19;12.07;;;8.60;;
15340;SDS011;7770;52.158;5.372;2023-06-26T03:04:05;11.10;;;7.97;;
15340;SDS011;7770;52.158;5.372;2023-06-26T03:06:51;13.73;;;8.03;;
15340;SDS011;7770;52.158;5.372;2023-06-26T03:09:37;13.00;;;8.20;;
15340;SDS011;7770;52.158;5.372;2023-06-26T03:12:23;13.13;;;7.77;;
15340;SDS011;7770;52.158;5.372;2023-06-26T03:15:10;10.90;;;8.27;;
15340;SDS011;7770;52.158;5.372;2023-06-26T03:17:56;12.07;;;8.23;;
15340;SDS011;7770;52.158;5.372;2023-06-26T03:20:42;13.63;;;7.60;;
15340;SDS011;7770;52.158;5.372;2023-06-26T03:23:28;13.00;;;8.37;;
15340;SDS011;7770;52.158;5.372;2023-06-26T03:26:14;10.93;;;8.37;;
15340;SDS011;7770;52.158;5.372;2023-06-26T03:29:00;13.23;;;8.80;;
15340;SDS011;7770;52.158;5.372;2023-06-26T03:31:46;12.50;;;8.20;;
15340;SDS011;7770;52.158;5.372;2023-06-26T03:34:32;12.33;;;8.50;;
15340;SDS011;7770;52.158;5.372;2023-06-26T03:37:18;13.30;;;9.20;;
15340;SDS011;7770;52.158;5.372;2023-06-26T03:40:04;17.20;;;8.63;;
15340;SDS011;7770;52.158;5.372;2023-06-26T03:42:51;13.03;;;8.33;;
15340;SDS011;7770;52.158;5.372;2023-06-26T03:45:37;12.17;;;8.17;;
15340;SDS011;7770;52.158;5.372;2023-06-26T03:48:23;14.13;;;8.60;;
15340;SDS011;7770;52.158;5.372;2023-06-26T03:51:09;12.47;;;8.63;;
15340;SDS011;7770;52.158;5.372;2023-06-26T03:53:55;14.33;;;8.40;;
15340;SDS011;7770;52.158;5.372;2023-06-26T03:56:41;14.23;;;8.70;;
15340;SDS011;7770;52.158;5.372;2023-06-26T03:59:27;15.83;;;8.97;;
15340;SDS011;7770;52.158;5.372;2023-06-26T04:02:13;15.43;;;8.80;;
15340;SDS011;7770;52.158;5.372;2023-06-26T04:04:59;17.07;;;9.17;;
15340;SDS011;7770;52.158;5.372;2023-06-26T04:07:49;20.80;;;9.83;;
15340;SDS011;7770;52.158;5.372;2023-06-26T04:10:36;17.13;;;8.83;;
15340;SDS011;7770;52.158;5.372;2023-06-26T04:13:22;17.73;;;9.53;;
15340;SDS011;7770;52.158;5.372;2023-06-26T04:16:08;15.10;;;9.27;;
15340;SDS011;7770;52.158;5.372;2023-06-26T04:18:56;19.33;;;9.30;;
15340;SDS011;7770;52.158;5.372;2023-06-26T04:21:42;14.20;;;9.07;;
15340;SDS011;7770;52.158;5.372;2023-06-26T04:24:28;17.10;;;8.73;;
15340;SDS011;7770;52.158;5.372;2023-06-26T04:27:14;15.27;;;8.90;;
15340;SDS011;7770;52.158;5.372;2023-06-26T04:30:00;13.67;;;8.53;;
15340;SDS011;7770;52.158;5.372;2023-06-26T04:32:46;14.87;;;8.80;;
15340;SDS011;7770;52.158;5.372;2023-06-26T04:35:32;17.43;;;8.63;;
15340;SDS011;7770;52.158;5.372;2023-06-26T04:38:22;14.87;;;8.23;;
15340;SDS011;7770;52.158;5.372;2023-06-26T04:41:08;17.60;;;9.10;;
15340;SDS011;7770;52.158;5.372;2023-06-26T04:43:54;13.40;;;8.30;;
15340;SDS011;7770;52.158;5.372;2023-06-26T04:46:40;17.83;;;8.00;;
15340;SDS011;7770;52.158;5.372;2023-06-26T04:49:26;12.80;;;7.80;;
15340;SDS011;7770;52.158;5.372;2023-06-26T04:52:13;11.83;;;7.87;;
15340;SDS011;7770;52.158;5.372;2023-06-26T04:54:59;14.33;;;8.00;;
15340;SDS011;7770;52.158;5.372;2023-06-26T04:57:45;12.33;;;8.17;;
15340;SDS011;7770;52.158;5.372;2023-06-26T05:00:31;14.37;;;8.10;;
15340;SDS011;7770;52.158;5.372;2023-06-26T05:03:21;12.37;;;7.87;;
15340;SDS011;7770;52.158;5.372;2023-06-26T05:06:07;17.53;;;7.57;;
15340;SDS011;7770;52.158;5.372;2023-06-26T05:08:53;11.47;;;6.97;;
15340;SDS011;7770;52.158;5.372;2023-06-26T05:11:39;12.43;;;6.83;;
15340;SDS011;7770;52.158;5.372;2023-06-26T05:14:25;11.93;;;7.43;;
15340;SDS011;7770;52.158;5.372;2023-06-26T05:17:13;10.90;;;7.60;;
15340;SDS011;7770;52.158;5.372;2023-06-26T05:19:59;11.73;;;7.07;;
15340;SDS011;7770;52.158;5.372;2023-06-26T05:22:45;12.23;;;7.43;;
15340;SDS011;7770;52.158;5.372;2023-06-26T05:25:32;8.97;;;6.23;;
15340;SDS011;7770;52.158;5.372;2023-06-26T05:28:19;8.87;;;6.60;;
15340;SDS011;7770;52.158;5.372;2023-06-26T05:31:05;8.63;;;6.20;;
15340;SDS011;7770;52.158;5.372;2023-06-26T05:33:52;8.33;;;6.30;;
15340;SDS011;7770;52.158;5.372;2023-06-26T05:36:41;8.00;;;5.70;;
15340;SDS011;7770;52.158;5.372;2023-06-26T05:39:28;6.35;;;5.60;;
15340;SDS011;7770;52.158;5.372;2023-06-26T05:42:15;8.23;;;5.05;;
15340;SDS011;7770;52.158;5.372;2023-06-26T05:45:01;7.30;;;5.20;;
15340;SDS011;7770;52.158;5.372;2023-06-26T05:47:47;6.63;;;5.15;;
15340;SDS011;7770;52.158;5.372;2023-06-26T05:50:35;7.47;;;4.82;;
15340;SDS011;7770;52.158;5.372;2023-06-26T05:53:22;7.03;;;4.78;;
15340;SDS011;7770;52.158;5.372;2023-06-26T05:56:08;6.18;;;4.90;;
15340;SDS011;7770;52.158;5.372;2023-06-26T05:58:55;5.82;;;4.80;;
15340;SDS011;7770;52.158;5.372;2023-06-26T06:01:42;4.93;;;4.05;;
15340;SDS011;7770;52.158;5.372;2023-06-26T06:04:28;5.05;;;3.83;;
15340;SDS011;7770;52.158;5.372;2023-06-26T06:07:14;8.55;;;4.35;;
15340;SDS011;7770;52.158;5.372;2023-06-26T06:10:01;5.40;;;3.85;;
15340;SDS011;7770;52.158;5.372;2023-06-26T06:12:48;4.32;;;3.80;;
15340;SDS011;7770;52.158;5.372;2023-06-26T06:15:34;4.72;;;4.00;;
15340;SDS011;7770;52.158;5.372;2023-06-26T06:18:20;7.18;;;4.22;;
15340;SDS011;7770;52.158;5.372;2023-06-26T06:21:06;4.63;;;3.88;;
15340;SDS011;7770;52.158;5.372;2023-06-26T06:23:52;5.60;;;4.30;;
15340;SDS011;7770;52.158;5.372;2023-06-26T06:26:38;6.90;;;4.10;;
15340;SDS011;7770;52.158;5.372;2023-06-26T06:29:24;6.40;;;4.28;;
15340;SDS011;7770;52.158;5.372;2023-06-26T06:32:10;6.80;;;4.30;;
15340;SDS011;7770;52.158;5.372;2023-06-26T06:34:56;9.25;;;4.63;;
15340;SDS011;7770;52.158;5.372;2023-06-26T06:37:42;5.38;;;4.28;;
15340;SDS011;7770;52.158;5.372;2023-06-26T06:40:28;6.28;;;4.65;;
15340;SDS011;7770;52.158;5.372;2023-06-26T06:43:14;6.25;;;4.30;;
15340;SDS011;7770;52.158;5.372;2023-06-26T06:46:00;6.30;;;4.15;;
15340;SDS011;7770;52.158;5.372;2023-06-26T06:48:46;5.75;;;4.60;;
15340;SDS011;7770;52.158;5.372;2023-06-26T06:51:32;4.70;;;4.20;;
15340;SDS011;7770;52.158;5.372;2023-06-26T06:54:18;4.65;;;4.07;;
15340;SDS011;7770;52.158;5.372;2023-06-26T06:57:05;7.53;;;4.20;;
15340;SDS011;7770;52.158;5.372;2023-06-26T06:59:51;7.47;;;4.37;;
15340;SDS011;7770;52.158;5.372;2023-06-26T07:02:41;4.43;;;4.00;;
15340;SDS011;7770;52.158;5.372;2023-06-26T07:05:29;4.80;;;4.27;;
15340;SDS011;7770;52.158;5.372;2023-06-26T07:08:15;7.40;;;5.00;;
15340;SDS011;7770;52.158;5.372;2023-06-26T07:11:01;6.87;;;4.57;;
15340;SDS011;7770;52.158;5.372;2023-06-26T07:13:48;5.40;;;4.77;;
15340;SDS011;7770;52.158;5.372;2023-06-26T07:16:34;6.00;;;4.78;;
15340;SDS011;7770;52.158;5.372;2023-06-26T07:19:21;7.00;;;4.80;;
15340;SDS011;7770;52.158;5.372;2023-06-26T07:22:07;9.35;;;4.97;;
15340;SDS011;7770;52.158;5.372;2023-06-26T07:24:53;8.40;;;5.10;;
15340;SDS011;7770;52.158;5.372;2023-06-26T07:27:39;7.10;;;5.20;;
15340;SDS011;7770;52.158;5.372;2023-06-26T07:30:26;7.18;;;4.95;;
15340;SDS011;7770;52.158;5.372;2023-06-26T07:33:12;8.13;;;4.57;;
15340;SDS011;7770;52.158;5.372;2023-06-26T07:35:58;7.28;;;4.90;;
15340;SDS011;7770;52.158;5.372;2023-06-26T07:38:44;7.05;;;4.60;;
15340;SDS011;7770;52.158;5.372;2023-06-26T07:41:30;5.72;;;4.72;;
15340;SDS011;7770;52.158;5.372;2023-06-26T07:44:16;6.68;;;4.30;;
15340;SDS011;7770;52.158;5.372;2023-06-26T07:47:03;7.88;;;4.60;;
15340;SDS011;7770;52.158;5.372;2023-06-26T07:49:49;6.65;;;4.72;;
15340;SDS011;7770;52.158;5.372;2023-06-26T07:52:35;7.20;;;4.65;;
15340;SDS011;7770;52.158;5.372;2023-06-26T07:55:21;7.10;;;4.35;;
15340;SDS011;7770;52.158;5.372;2023-06-26T07:58:07;9.93;;;4.78;;
15340;SDS011;7770;52.158;5.372;2023-06-26T08:00:53;9.88;;;4.95;;
15340;SDS011;7770;52.158;5.372;2023-06-26T08:03:39;9.10;;;4.72;;
15340;SDS011;7770;52.158;5.372;2023-06-26T08:06:25;6.20;;;4.50;;
15340;SDS011;7770;52.158;5.372;2023-06-26T08:09:12;7.65;;;4.78;;
15340;SDS011;7770;52.158;5.372;2023-06-26T08:11:58;6.45;;;4.50;;
15340;SDS011;7770;52.158;5.372;2023-06-26T08:14:44;6.88;;;4.40;;
15340;SDS011;7770;52.158;5.372;2023-06-26T08:17:30;5.78;;;4.78;;
15340;SDS011;7770;52.158;5.372;2023-06-26T08:20:16;5.88;;;4.43;;
15340;SDS011;7770;52.158;5.372;2023-06-26T08:23:03;12.60;;;4.53;;
15340;SDS011;7770;52.158;5.372;2023-06-26T08:25:49;4.90;;;4.03;;
15340;SDS011;7770;52.158;5.372;2023-06-26T08:28:35;7.60;;;4.10;;
15340;SDS011;7770;52.158;5.372;2023-06-26T08:31:21;7.90;;;4.07;;
15340;SDS011;7770;52.158;5.372;2023-06-26T08:34:08;5.18;;;3.50;;
15340;SDS011;7770;52.158;5.372;2023-06-26T08:36:54;5.93;;;3.33;;
15340;SDS011;7770;52.158;5.372;2023-06-26T08:39:40;7.00;;;3.88;;
15340;SDS011;7770;52.158;5.372;2023-06-26T08:42:26;6.85;;;3.75;;
15340;SDS011;7770;52.158;5.372;2023-06-26T08:45:12;5.35;;;3.40;;
15340;SDS011;7770;52.158;5.372;2023-06-26T08:47:59;7.22;;;3.65;;
15340;SDS011;7770;52.158;5.372;2023-06-26T08:50:48;4.50;;;3.17;;
15340;SDS011;7770;52.158;5.372;2023-06-26T08:56:32;6.82;;;3.30;;
15340;SDS011;7770;52.158;5.372;2023-06-26T08:59:21;6.18;;;3.05;;
15340;SDS011;7770;52.158;5.372;2023-06-26T09:02:08;5.13;;;3.20;;
15340;SDS011;7770;52.158;5.372;2023-06-26T09:04:54;7.30;;;3.08;;
15340;SDS011;7770;52.158;5.372;2023-06-26T09:07:40;3.58;;;2.97;;
15340;SDS011;7770;52.158;5.372;2023-06-26T09:10:26;3.42;;;2.55;;
15340;SDS011;7770;52.158;5.372;2023-06-26T09:13:12;4.50;;;3.00;;
15340;SDS011;7770;52.158;5.372;2023-06-26T09:15:58;6.43;;;2.90;;
15340;SDS011;7770;52.158;5.372;2023-06-26T09:18:45;4.63;;;2.95;;
15340;SDS011;7770;52.158;5.372;2023-06-26T09:21:32;2.80;;;2.50;;
15340;SDS011;7770;52.158;5.372;2023-06-26T09:24:18;5.45;;;2.85;;
15340;SDS011;7770;52.158;5.372;2023-06-26T09:27:04;4.78;;;3.30;;
15340;SDS011;7770;52.158;5.372;2023-06-26T09:29:50;5.35;;;2.92;;
15340;SDS011;7770;52.158;5.372;2023-06-26T09:32:36;4.13;;;3.03;;
15340;SDS011;7770;52.158;5.372;2023-06-26T09:35:23;5.95;;;3.50;;
15340;SDS011;7770;52.158;5.372;2023-06-26T09:38:10;3.95;;;2.80;;
15340;SDS011;7770;52.158;5.372;2023-06-26T09:40:57;9.57;;;3.47;;
15340;SDS011;7770;52.158;5.372;2023-06-26T09:43:47;4.30;;;2.95;;
15340;SDS011;7770;52.158;5.372;2023-06-26T09:46:37;5.72;;;3.17;;
15340;SDS011;7770;52.158;5.372;2023-06-26T09:49:23;6.47;;;3.10;;
15340;SDS011;7770;52.158;5.372;2023-06-26T09:52:14;5.45;;;3.17;;
15340;SDS011;7770;52.158;5.372;2023-06-26T09:55:08;8.10;;;3.30;;
15340;SDS011;7770;52.158;5.372;2023-06-26T09:57:55;4.82;;;3.00;;
15340;SDS011;7770;52.158;5.372;2023-06-26T10:00:44;7.07;;;3.35;;
15340;SDS011;7770;52.158;5.372;2023-06-26T10:03:30;6.35;;;3.03;;
15340;SDS011;7770;52.158;5.372;2023-06-26T10:06:21;5.15;;;3.10;;
15340;SDS011;7770;52.158;5.372;2023-06-26T10:09:17;3.15;;;2.85;;
15340;SDS011;7770;52.158;5.372;2023-06-26T10:12:16;4.05;;;2.70;;
15340;SDS011;7770;52.158;5.372;2023-06-26T10:15:05;5.07;;;2.50;;
15340;SDS011;7770;52.158;5.372;2023-06-26T10:17:56;5.55;;;3.08;;
15340;SDS011;7770;52.158;5.372;2023-06-26T10:20:43;6.10;;;2.65;;
15340;SDS011;7770;52.158;5.372;2023-06-26T10:23:34;5.68;;;2.80;;
15340;SDS011;7770;52.158;5.372;2023-06-26T10:26:22;4.90;;;2.80;;
15340;SDS011;7770;52.158;5.372;2023-06-26T10:29:12;5.22;;;2.70;;
15340;SDS011;7770;52.158;5.372;2023-06-26T10:32:02;7.07;;;2.90;;
15340;SDS011;7770;52.158;5.372;2023-06-26T10:34:50;3.50;;;2.35;;
15340;SDS011;7770;52.158;5.372;2023-06-26T10:37:41;4.82;;;2.50;;
15340;SDS011;7770;52.158;5.372;2023-06-26T10:40:47;6.95;;;2.70;;
15340;SDS011;7770;52.158;5.372;2023-06-26T10:43:35;2.90;;;2.55;;
15340;SDS011;7770;52.158;5.372;2023-06-26T10:46:24;6.43;;;2.30;;
15340;SDS011;7770;52.158;5.372;2023-06-26T10:49:10;4.32;;;2.65;;
15340;SDS011;7770;52.158;5.372;2023-06-26T10:52:00;4.18;;;2.60;;
15340;SDS011;7770;52.158;5.372;2023-06-26T10:54:46;4.18;;;2.53;;
15340;SDS011;7770;52.158;5.372;2023-06-26T10:57:33;3.13;;;2.50;;
15340;SDS011;7770;52.158;5.372;2023-06-26T11:00:21;5.13;;;2.90;;
15340;SDS011;7770;52.158;5.372;2023-06-26T11:03:22;4.25;;;2.83;;
15340;SDS011;7770;52.158;5.372;2023-06-26T11:06:16;4.47;;;2.40;;
15340;SDS011;7770;52.158;5.372;2023-06-26T11:14:36;5.40;;;2.58;;
15340;SDS011;7770;52.158;5.372;2023-06-26T11:17:22;6.10;;;2.53;;
15340;SDS011;7770;52.158;5.372;2023-06-26T11:20:12;3.75;;;2.47;;
15340;SDS011;7770;52.158;5.372;2023-06-26T11:23:01;3.65;;;2.20;;
15340;SDS011;7770;52.158;5.372;2023-06-26T11:25:54;4.53;;;2.72;;
15340;SDS011;7770;52.158;5.372;2023-06-26T11:28:45;5.72;;;2.53;;
15340;SDS011;7770;52.158;5.372;2023-06-26T11:31:37;5.43;;;2.60;;
15340;SDS011;7770;52.158;5.372;2023-06-26T11:34:25;3.70;;;2.50;;
15340;SDS011;7770;52.158;5.372;2023-06-26T11:37:19;2.95;;;2.35;;
15340;SDS011;7770;52.158;5.372;2023-06-26T11:40:16;5.60;;;2.50;;
15340;SDS011;7770;52.158;5.372;2023-06-26T11:43:06;4.78;;;2.63;;
15340;SDS011;7770;52.158;5.372;2023-06-26T11:45:52;5.07;;;2.63;;
15340;SDS011;7770;52.158;5.372;2023-06-26T11:48:38;4.93;;;2.50;;
15340;SDS011;7770;52.158;5.372;2023-06-26T11:51:27;4.75;;;2.53;;
15340;SDS011;7770;52.158;5.372;2023-06-26T11:54:14;5.07;;;2.20;;
15340;SDS011;7770;52.158;5.372;2023-06-26T11:57:00;3.80;;;2.20;;
15340;SDS011;7770;52.158;5.372;2023-06-26T11:59:49;6.22;;;2.50;;
15340;SDS011;7770;52.158;5.372;2023-06-26T12:02:37;3.42;;;2.30;;
15340;SDS011;7770;52.158;5.372;2023-06-26T12:05:23;5.82;;;2.30;;
15340;SDS011;7770;52.158;5.372;2023-06-26T12:08:09;3.47;;;2.22;;
15340;SDS011;7770;52.158;5.372;2023-06-26T12:10:56;4.30;;;2.03;;
15340;SDS011;7770;52.158;5.372;2023-06-26T12:13:42;3.35;;;2.08;;
15340;SDS011;7770;52.158;5.372;2023-06-26T12:16:29;5.78;;;2.30;;
15340;SDS011;7770;52.158;5.372;2023-06-26T12:19:16;3.03;;;2.30;;
15340;SDS011;7770;52.158;5.372;2023-06-26T12:22:05;7.40;;;2.35;;
15340;SDS011;7770;52.158;5.372;2023-06-26T12:24:52;3.25;;;2.20;;
15340;SDS011;7770;52.158;5.372;2023-06-26T12:27:44;4.22;;;2.30;;
15340;SDS011;7770;52.158;5.372;2023-06-26T12:30:31;3.85;;;2.17;;
15340;SDS011;7770;52.158;5.372;2023-06-26T12:33:17;2.90;;;1.83;;
15340;SDS011;7770;52.158;5.372;2023-06-26T12:36:03;3.03;;;2.10;;
15340;SDS011;7770;52.158;5.372;2023-06-26T12:38:49;3.78;;;2.22;;
15340;SDS011;7770;52.158;5.372;2023-06-26T12:41:48;2.88;;;2.10;;
15340;SDS011;7770;52.158;5.372;2023-06-26T12:44:37;4.20;;;2.10;;
15340;SDS011;7770;52.158;5.372;2023-06-26T12:47:24;3.67;;;1.80;;
15340;SDS011;7770;52.158;5.372;2023-06-26T12:50:13;4.85;;;2.25;;
15340;SDS011;7770;52.158;5.372;2023-06-26T12:52:59;4.43;;;2.67;;
15340;SDS011;7770;52.158;5.372;2023-06-26T12:55:45;4.53;;;2.33;;
15340;SDS011;7770;52.158;5.372;2023-06-26T12:58:31;8.48;;;2.20;;
15340;SDS011;7770;52.158;5.372;2023-06-26T13:01:17;3.95;;;2.40;;
15340;SDS011;7770;52.158;5.372;2023-06-26T13:04:05;4.00;;;2.20;;
15340;SDS011;7770;52.158;5.372;2023-06-26T13:06:51;3.40;;;2.15;;
15340;SDS011;7770;52.158;5.372;2023-06-26T13:09:40;3.90;;;2.15;;
15340;SDS011;7770;52.158;5.372;2023-06-26T13:12:26;3.17;;;2.03;;
15340;SDS011;7770;52.158;5.372;2023-06-26T13:15:12;3.38;;;2.15;;
15340;SDS011;7770;52.158;5.372;2023-06-26T13:17:58;3.90;;;2.20;;
15340;SDS011;7770;52.158;5.372;2023-06-26T13:20:44;4.82;;;2.28;;
15340;SDS011;7770;52.158;5.372;2023-06-26T13:23:30;2.95;;;1.90;;
15340;SDS011;7770;52.158;5.372;2023-06-26T13:26:16;3.17;;;1.98;;
15340;SDS011;7770;52.158;5.372;2023-06-26T13:29:02;3.17;;;2.10;;
15340;SDS011;7770;52.158;5.372;2023-06-26T13:31:48;3.55;;;2.10;;
15340;SDS011;7770;52.158;5.372;2023-06-26T13:34:34;5.13;;;2.30;;
15340;SDS011;7770;52.158;5.372;2023-06-26T13:37:20;2.92;;;2.35;;
15340;SDS011;7770;52.158;5.372;2023-06-26T13:40:06;3.22;;;1.90;;
15340;SDS011;7770;52.158;5.372;2023-06-26T13:42:53;2.58;;;2.05;;
15340;SDS011;7770;52.158;5.372;2023-06-26T13:45:39;2.95;;;2.22;;
15340;SDS011;7770;52.158;5.372;2023-06-26T13:48:25;3.50;;;2.20;;
15340;SDS011;7770;52.158;5.372;2023-06-26T13:51:12;2.95;;;2.30;;
15340;SDS011;7770;52.158;5.372;2023-06-26T13:53:58;3.78;;;2.15;;
15340;SDS011;7770;52.158;5.372;2023-06-26T13:56:45;2.75;;;2.10;;
15340;SDS011;7770;52.158;5.372;2023-06-26T13:59:32;3.97;;;2.28;;
15340;SDS011;7770;52.158;5.372;2023-06-26T14:02:19;5.05;;;2.30;;
15340;SDS011;7770;52.158;5.372;2023-06-26T14:05:05;5.40;;;2.30;;
15340;SDS011;7770;52.158;5.372;2023-06-26T14:07:51;2.78;;;2.05;;
15340;SDS011;7770;52.158;5.372;2023-06-26T14:10:39;2.78;;;2.20;;
15340;SDS011;7770;52.158;5.372;2023-06-26T14:13:25;5.22;;;2.22;;
15340;SDS011;7770;52.158;5.372;2023-06-26T14:16:11;3.17;;;2.05;;
15340;SDS011;7770;52.158;5.372;2023-06-26T14:18:57;4.80;;;2.05;;
15340;SDS011;7770;52.158;5.372;2023-06-26T14:21:43;4.07;;;2.45;;
15340;SDS011;7770;52.158;5.372;2023-06-26T14:24:29;4.80;;;2.50;;
15340;SDS011;7770;52.158;5.372;2023-06-26T14:27:15;2.95;;;2.50;;
15340;SDS011;7770;52.158;5.372;2023-06-26T14:30:01;4.22;;;2.15;;
15340;SDS011;7770;52.158;5.372;2023-06-26T14:32:49;9.23;;;2.17;;
15340;SDS011;7770;52.158;5.372;2023-06-26T14:35:35;3.83;;;2.13;;
15340;SDS011;7770;52.158;5.372;2023-06-26T14:38:21;3.75;;;2.13;;
15340;SDS011;7770;52.158;5.372;2023-06-26T14:41:07;3.35;;;2.08;;
15340;SDS011;7770;52.158;5.372;2023-06-26T14:43:53;2.85;;;2.00;;
15340;SDS011;7770;52.158;5.372;2023-06-26T14:46:39;2.30;;;1.92;;
15340;SDS011;7770;52.158;5.372;2023-06-26T14:49:25;8.98;;;2.67;;
15340;SDS011;7770;52.158;5.372;2023-06-26T14:52:11;3.47;;;2.20;;
15340;SDS011;7770;52.158;5.372;2023-06-26T14:54:57;3.45;;;2.53;;
15340;SDS011;7770;52.158;5.372;2023-06-26T14:57:44;3.43;;;2.30;;
15340;SDS011;7770;52.158;5.372;2023-06-26T15:00:30;4.63;;;2.10;;
15340;SDS011;7770;52.158;5.372;2023-06-26T15:03:16;3.87;;;2.17;;
15340;SDS011;7770;52.158;5.372;2023-06-26T15:06:02;4.75;;;2.30;;
15340;SDS011;7770;52.158;5.372;2023-06-26T15:08:48;2.40;;;2.10;;
15340;SDS011;7770;52.158;5.372;2023-06-26T15:11:34;3.97;;;2.20;;
15340;SDS011;7770;52.158;5.372;2023-06-26T15:14:21;5.67;;;2.20;;
15340;SDS011;7770;52.158;5.372;2023-06-26T15:17:07;4.67;;;2.50;;
15340;SDS011;7770;52.158;5.372;2023-06-26T15:19:53;4.80;;;2.40;;
15340;SDS011;7770;52.158;5.372;2023-06-26T15:22:39;4.47;;;2.60;;
15340;SDS011;7770;52.158;5.372;2023-06-26T15:25:26;3.50;;;2.20;;
15340;SDS011;7770;52.158;5.372;2023-06-26T15:28:13;4.37;;;2.30;;
15340;SDS011;7770;52.158;5.372;2023-06-26T15:30:59;4.97;;;2.80;;
15340;SDS011;7770;52.158;5.372;2023-06-26T15:33:45;5.13;;;2.60;;
15340;SDS011;7770;52.158;5.372;2023-06-26T15:36:31;3.33;;;2.50;;
15340;SDS011;7770;52.158;5.372;2023-06-26T15:39:17;4.43;;;2.50;;
15340;SDS011;7770;52.158;5.372;2023-06-26T15:42:04;4.93;;;2.70;;
15340;SDS011;7770;52.158;5.372;2023-06-26T15:44:51;4.20;;;2.70;;
15340;SDS011;7770;52.158;5.372;2023-06-26T15:47:36;3.07;;;2.50;;
15340;SDS011;7770;52.158;5.372;2023-06-26T15:50:22;7.53;;;2.70;;
15340;SDS011;7770;52.158;5.372;2023-06-26T15:53:08;3.50;;;2.50;;
15340;SDS011;7770;52.158;5.372;2023-06-26T15:55:54;5.73;;;2.57;;
15340;SDS011;7770;52.158;5.372;2023-06-26T15:58:40;3.00;;;2.37;;
15340;SDS011;7770;52.158;5.372;2023-06-26T16:01:27;3.27;;;2.30;;
15340;SDS011;7770;52.158;5.372;2023-06-26T16:04:13;3.90;;;2.50;;
15340;SDS011;7770;52.158;5.372;2023-06-26T16:06:59;4.33;;;2.40;;
15340;SDS011;7770;52.158;5.372;2023-06-26T16:09:45;4.30;;;2.40;;
15340;SDS011;7770;52.158;5.372;2023-06-26T16:12:31;2.90;;;2.43;;
15340;SDS011;7770;52.158;5.372;2023-06-26T16:15:17;2.77;;;2.50;;
15340;SDS011;7770;52.158;5.372;2023-06-26T16:18:03;2.80;;;2.30;;
15340;SDS011;7770;52.158;5.372;2023-06-26T16:20:49;4.67;;;2.40;;
15340;SDS011;7770;52.158;5.372;2023-06-26T16:23:35;2.73;;;2.50;;
15340;SDS011;7770;52.158;5.372;2023-06-26T16:26:21;4.87;;;2.60;;
15340;SDS011;7770;52.158;5.372;2023-06-26T16:29:07;3.97;;;2.10;;
15340;SDS011;7770;52.158;5.372;2023-06-26T16:31:53;3.47;;;2.43;;
15340;SDS011;7770;52.158;5.372;2023-06-26T16:34:39;3.30;;;2.60;;
15340;SDS011;7770;52.158;5.372;2023-06-26T16:37:25;3.03;;;2.33;;
15340;SDS011;7770;52.158;5.372;2023-06-26T16:40:11;3.77;;;2.40;;
15340;SDS011;7770;52.158;5.372;2023-06-26T16:42:57;3.83;;;2.10;;
15340;SDS011;7770;52.158;5.372;2023-06-26T16:45:43;4.77;;;2.50;;
15340;SDS011;7770;52.158;5.372;2023-06-26T16:48:29;2.77;;;2.50;;
15340;SDS011;7770;52.158;5.372;2023-06-26T16:51:15;6.07;;;2.67;;
15340;SDS011;7770;52.158;5.372;2023-06-26T16:54:02;3.93;;;2.50;;
15340;SDS011;7770;52.158;5.372;2023-06-26T16:56:48;6.30;;;2.60;;
15340;SDS011;7770;52.158;5.372;2023-06-26T16:59:34;3.93;;;2.40;;
15340;SDS011;7770;52.158;5.372;2023-06-26T17:02:20;5.47;;;2.57;;
15340;SDS011;7770;52.158;5.372;2023-06-26T17:05:06;4.57;;;2.40;;
15340;SDS011;7770;52.158;5.372;2023-06-26T17:07:53;4.00;;;2.27;;
15340;SDS011;7770;52.158;5.372;2023-06-26T17:10:39;3.20;;;2.37;;